Time;durP1;ratioP1;P1;durP2;ratioP2;P2;SDS_P1;SDS_P2;PMS_P1;PMS_P2;Temp;Humidity;BMP_temperature;BMP_pressure;BME280_temperature;BME280_humidity;BME280_pressure;Samples;Min_cycle;Max_cycle;Signal;HPM_P1;HPM_P2
2022/01/18 00:00:06;;;;;;;0.00;0.00;;;;;;;;;;1764076;79;26903;-34
2022/01/18 00:02:33;;;;;;;0.10;0.10;;;;;;;;;;1763122;79;26325;-34
2022/01/18 00:05:01;;;;;;;0.20;0.20;;;;;;;;;;1759680;79;26376;-34
2022/01/18 00:07:28;;;;;;;0.20;0.20;;;;;;;;;;1762263;81;26381;-34
2022/01/18 00:09:56;;;;;;;0.23;0.23;;;;;;;;;;1766157;81;26395;-35
2022/01/18 00:12:43;;;;;;;0.15;0.15;;;;;;;;;;1752594;79;26611;-35
2022/01/18 00:17:42;;;;;;;0.10;0.10;;;;;;;;;;1748023;82;26380;-34
2022/01/18 00:20:05;;;;;;;0.20;0.20;;;;;;;;;;1755968;79;26368;-34
2022/01/18 00:22:32;;;;;;;0.20;0.20;;;;;;;;;;1766352;79;25828;-35
2022/01/18 00:25:01;;;;;;;0.10;0.10;;;;;;;;;;1768551;79;26369;-35
2022/01/18 00:27:28;;;;;;;0.13;0.10;;;;;;;;;;1764138;81;26663;-35
2022/01/18 00:32:53;;;;;;;0.10;0.10;;;;;;;;;;1716929;82;27537;-35
2022/01/18 00:35:03;;;;;;;0.62;0.30;;;;;;;;;;1747501;81;26368;-34
2022/01/18 00:37:36;;;;;;;0.20;0.20;;;;;;;;;;1774299;79;27546;-34
2022/01/18 00:40:03;;;;;;;0.10;0.10;;;;;;;;;;1766861;79;26245;-34
2022/01/18 00:42:31;;;;;;;0.28;0.28;;;;;;;;;;1752649;79;26691;-34
2022/01/18 00:44:58;;;;;;;0.10;0.10;;;;;;;;;;1780559;79;26224;-35
2022/01/18 00:47:25;;;;;;;0.15;0.15;;;;;;;;;;1780485;79;26302;-35
2022/01/18 00:50:00;;;;;;;0.20;0.20;;;;;;;;;;1759017;80;26839;-37
2022/01/18 00:52:25;;;;;;;0.10;0.10;;;;;;;;;;1770812;79;26308;-34
2022/01/18 00:54:52;;;;;;;0.15;0.15;;;;;;;;;;1775971;79;26411;-34
2022/01/18 00:57:20;;;;;;;0.15;0.15;;;;;;;;;;1778376;79;26283;-34
2022/01/18 00:59:47;;;;;;;0.20;0.20;;;;;;;;;;1765657;80;26286;-35
2022/01/18 01:02:15;;;;;;;0.10;0.10;;;;;;;;;;1771459;79;26293;-35
2022/01/18 01:04:47;;;;;;;0.10;0.10;;;;;;;;;;1772080;79;26923;-34
2022/01/18 01:07:12;;;;;;;0.20;0.20;;;;;;;;;;1780014;79;26294;-35
2022/01/18 01:09:39;;;;;;;0.10;0.10;;;;;;;;;;1779675;79;27492;-34
2022/01/18 01:12:09;;;;;;;0.20;0.20;;;;;;;;;;1779536;79;26373;-34
2022/01/18 01:14:36;;;;;;;0.10;0.10;;;;;;;;;;1776114;79;26322;-34
2022/01/18 01:32:12;;;;;;;0.00;0.00;;;;;;;;;;1780766;79;26294;-34
2022/01/18 01:37:10;;;;;;;0.10;0.10;;;;;;;;;;1766619;79;26294;-34
2022/01/18 01:46:38;;;;;;;0.00;0.00;;;;;;;;;;1753122;79;26767;-34
2022/01/18 01:49:12;;;;;;;0.20;0.20;;;;;;;;;;1780755;80;26755;-34
2022/01/18 01:51:35;;;;;;;0.10;0.10;;;;;;;;;;1770834;79;26727;-34
2022/01/18 01:54:04;;;;;;;0.17;0.17;;;;;;;;;;1782333;79;26231;-35
2022/01/18 01:56:31;;;;;;;0.15;0.15;;;;;;;;;;1783034;79;26290;-34
2022/01/18 01:58:59;;;;;;;0.20;0.20;;;;;;;;;;1783749;80;26719;-34
2022/01/18 02:01:27;;;;;;;0.30;0.30;;;;;;;;;;1777047;79;26310;-35
2022/01/18 02:03:56;;;;;;;0.10;0.10;;;;;;;;;;1782674;79;26279;-35
2022/01/18 02:06:24;;;;;;;0.20;0.20;;;;;;;;;;1783068;80;26317;-35
2022/01/18 02:08:51;;;;;;;0.17;0.17;;;;;;;;;;1782943;79;26357;-35
2022/01/18 02:11:19;;;;;;;0.10;0.10;;;;;;;;;;1778023;79;26698;-34
2022/01/18 02:13:48;;;;;;;0.10;0.10;;;;;;;;;;1783416;79;26326;-35
2022/01/18 02:21:46;;;;;;;0.23;0.23;;;;;;;;;;1766547;80;26384;-34
2022/01/18 02:21:49;;;;;;;0.20;0.20;;;;;;;;;;1775503;79;26763;-34
2022/01/18 02:24:18;;;;;;;0.20;0.20;;;;;;;;;;1773225;79;26825;-34
2022/01/18 02:26:46;;;;;;;0.17;0.17;;;;;;;;;;1779764;80;26305;-34
2022/01/18 02:29:13;;;;;;;0.15;0.15;;;;;;;;;;1781338;80;26259;-34
2022/01/18 02:31:41;;;;;;;0.20;0.20;;;;;;;;;;1776398;80;26301;-34
2022/01/18 02:34:10;;;;;;;0.28;0.20;;;;;;;;;;1782863;79;26514;-34
2022/01/18 02:36:37;;;;;;;0.10;0.10;;;;;;;;;;1783303;79;26758;-35
2022/01/18 02:39:06;;;;;;;0.15;0.15;;;;;;;;;;1778430;79;26269;-35
2022/01/18 02:41:33;;;;;;;0.20;0.20;;;;;;;;;;1784079;79;26287;-35
2022/01/18 02:44:02;;;;;;;0.17;0.17;;;;;;;;;;1776987;79;26283;-34
2022/01/18 02:46:29;;;;;;;0.10;0.10;;;;;;;;;;1793199;78;26253;-34
2022/01/18 02:48:57;;;;;;;0.20;0.20;;;;;;;;;;1793003;79;26800;-35
2022/01/18 02:51:25;;;;;;;0.10;0.10;;;;;;;;;;1798039;78;26183;-35
2022/01/18 02:54:03;;;;;;;0.30;0.30;;;;;;;;;;1800049;78;26760;-35
2022/01/18 02:56:46;;;;;;;0.20;0.20;;;;;;;;;;1799488;79;26788;-35
2022/01/18 02:59:18;;;;;;;0.23;0.23;;;;;;;;;;1789227;79;26325;-34
2022/01/18 03:04:26;;;;;;;0.30;0.20;;;;;;;;;;1799989;78;26263;-36
2022/01/18 03:06:54;;;;;;;0.35;0.35;;;;;;;;;;1800129;79;26843;-34
2022/01/18 03:09:21;;;;;;;0.20;0.20;;;;;;;;;;1793219;79;26346;-35
2022/01/18 03:11:48;;;;;;;0.30;0.30;;;;;;;;;;1794575;78;26423;-35
2022/01/18 03:14:16;;;;;;;0.20;0.20;;;;;;;;;;1792522;78;26293;-35
2022/01/18 03:16:43;;;;;;;0.20;0.20;;;;;;;;;;1799224;78;26807;-34
2022/01/18 03:19:11;;;;;;;0.20;0.20;;;;;;;;;;1792165;78;26349;-34
2022/01/18 03:21:38;;;;;;;0.20;0.20;;;;;;;;;;1786625;78;26225;-35
2022/01/18 03:24:20;;;;;;;0.10;0.10;;;;;;;;;;1790255;78;26324;-35
2022/01/18 03:29:27;;;;;;;0.20;0.20;;;;;;;;;;1790044;78;26303;-35
2022/01/18 03:31:55;;;;;;;0.57;0.42;;;;;;;;;;1793453;78;26226;-35
2022/01/18 03:34:22;;;;;;;0.20;0.20;;;;;;;;;;1783819;78;26274;-34
2022/01/18 03:36:50;;;;;;;0.17;0.17;;;;;;;;;;1777899;78;26795;-35
2022/01/18 03:39:17;;;;;;;0.20;0.20;;;;;;;;;;1786027;78;26282;-34
2022/01/18 03:41:51;;;;;;;0.20;0.20;;;;;;;;;;1786670;78;26207;-35
2022/01/18 03:44:14;;;;;;;0.10;0.10;;;;;;;;;;1786684;78;26793;-34
2022/01/18 03:46:41;;;;;;;0.15;0.15;;;;;;;;;;1801636;78;27532;-34
2022/01/18 03:49:08;;;;;;;0.20;0.20;;;;;;;;;;1811728;78;26251;-34
2022/01/18 03:51:36;;;;;;;0.42;0.20;;;;;;;;;;1821272;78;26213;-34
2022/01/18 03:54:03;;;;;;;0.40;0.30;;;;;;;;;;1802778;78;26292;-35
2022/01/18 03:56:30;;;;;;;0.20;0.20;;;;;;;;;;1808470;78;26221;-35
2022/01/18 03:58:57;;;;;;;0.10;0.10;;;;;;;;;;1809746;78;26237;-34
2022/01/18 04:01:25;;;;;;;0.20;0.20;;;;;;;;;;1805321;78;26793;-34
2022/01/18 04:03:52;;;;;;;0.53;0.20;;;;;;;;;;1795212;78;26249;-34
2022/01/18 04:06:19;;;;;;;1.27;0.20;;;;;;;;;;1803332;78;26233;-35
2022/01/18 04:08:47;;;;;;;0.20;0.20;;;;;;;;;;1806008;78;26331;-34
2022/01/18 04:11:14;;;;;;;0.20;0.20;;;;;;;;;;1797842;78;26234;-35
2022/01/18 04:13:41;;;;;;;0.20;0.20;;;;;;;;;;1790302;78;26289;-35
2022/01/18 04:16:09;;;;;;;0.10;0.10;;;;;;;;;;1806059;79;26234;-34
2022/01/18 04:18:48;;;;;;;1.20;0.20;;;;;;;;;;1801721;78;26908;-35
2022/01/18 04:29:06;;;;;;;0.20;0.20;;;;;;;;;;1806077;79;26276;-34
2022/01/18 04:31:33;;;;;;;0.30;0.30;;;;;;;;;;1804401;78;26312;-35
2022/01/18 04:34:01;;;;;;;0.20;0.20;;;;;;;;;;1793497;78;26370;-35
2022/01/18 04:36:29;;;;;;;0.20;0.20;;;;;;;;;;1791097;78;26340;-34
2022/01/18 04:38:56;;;;;;;0.28;0.28;;;;;;;;;;1801155;79;26238;-34
2022/01/18 04:41:29;;;;;;;0.30;0.30;;;;;;;;;;1805462;79;26312;-35
2022/01/18 04:49:08;;;;;;;0.30;0.30;;;;;;;;;;1801067;78;26262;-34
2022/01/18 04:51:35;;;;;;;0.28;0.28;;;;;;;;;;1805330;79;26233;-35
2022/01/18 04:54:06;;;;;;;0.25;0.25;;;;;;;;;;1803914;78;26705;-35
2022/01/18 04:59:05;;;;;;;0.28;0.20;;;;;;;;;;1797057;79;26325;-34
2022/01/18 05:01:33;;;;;;;0.20;0.20;;;;;;;;;;1791653;78;26250;-34
2022/01/18 05:04:01;;;;;;;0.20;0.20;;;;;;;;;;1804078;78;26305;-35
2022/01/18 05:06:28;;;;;;;0.20;0.20;;;;;;;;;;1805755;78;26253;-35
2022/01/18 05:08:57;;;;;;;0.20;0.20;;;;;;;;;;1791960;79;26675;-35
2022/01/18 05:11:27;;;;;;;0.20;0.20;;;;;;;;;;1797585;78;26310;-34
2022/01/18 05:14:12;;;;;;;0.35;0.35;;;;;;;;;;1803664;78;26273;-34
2022/01/18 05:24:12;;;;;;;0.40;0.40;;;;;;;;;;1799672;78;26339;-34
2022/01/18 05:26:39;;;;;;;0.30;0.30;;;;;;;;;;1805696;78;26359;-35
2022/01/18 05:29:06;;;;;;;0.30;0.30;;;;;;;;;;1796380;78;26733;-34
2022/01/18 05:31:34;;;;;;;0.20;0.20;;;;;;;;;;1785472;79;27298;-34
2022/01/18 05:34:01;;;;;;;0.50;0.40;;;;;;;;;;1786284;79;26940;-34
2022/01/18 05:36:29;;;;;;;0.30;0.30;;;;;;;;;;1795383;78;26183;-34
2022/01/18 05:38:56;;;;;;;0.30;0.30;;;;;;;;;;1788973;78;26756;-34
2022/01/18 05:41:23;;;;;;;0.50;0.50;;;;;;;;;;1792673;78;26709;-34
2022/01/18 05:43:51;;;;;;;0.50;0.30;;;;;;;;;;1792761;79;26729;-34
2022/01/18 05:46:18;;;;;;;0.30;0.30;;;;;;;;;;1791495;78;26281;-34
2022/01/18 05:48:45;;;;;;;1.55;0.40;;;;;;;;;;1792563;78;26245;-34
2022/01/18 05:51:13;;;;;;;0.50;0.50;;;;;;;;;;1788766;79;26238;-34
2022/01/18 05:53:41;;;;;;;4.75;0.60;;;;;;;;;;1785413;78;26184;-35
2022/01/18 05:56:11;;;;;;;3.85;0.78;;;;;;;;;;1805617;78;26222;-33
2022/01/18 05:58:43;;;;;;;0.53;0.50;;;;;;;;;;1800977;78;26730;-35
2022/01/18 06:01:10;;;;;;;0.70;0.70;;;;;;;;;;1792868;78;26758;-34
2022/01/18 06:03:51;;;;;;;0.50;0.50;;;;;;;;;;1793030;78;26234;-34
2022/01/18 06:08:52;;;;;;;0.50;0.50;;;;;;;;;;1791845;78;26300;-34
2022/01/18 06:11:19;;;;;;;1.10;0.50;;;;;;;;;;1805879;78;26328;-35
2022/01/18 06:13:46;;;;;;;0.50;0.50;;;;;;;;;;1798885;78;26263;-33
2022/01/18 06:16:14;;;;;;;0.80;0.60;;;;;;;;;;1803315;78;26355;-34
2022/01/18 06:18:41;;;;;;;0.60;0.57;;;;;;;;;;1810560;78;26175;-34
2022/01/18 06:21:08;;;;;;;0.40;0.40;;;;;;;;;;1805405;78;26646;-34
2022/01/18 06:23:36;;;;;;;1.27;0.62;;;;;;;;;;1807084;78;26691;-34
2022/01/18 06:26:03;;;;;;;1.10;0.42;;;;;;;;;;1812445;78;26323;-34
2022/01/18 06:28:36;;;;;;;0.50;0.47;;;;;;;;;;1801728;79;26226;-34
2022/01/18 06:31:00;;;;;;;1.30;0.60;;;;;;;;;;1797349;78;26843;-34
2022/01/18 06:33:28;;;;;;;0.50;0.50;;;;;;;;;;1803041;79;26760;-33
2022/01/18 06:35:55;;;;;;;1.25;0.60;;;;;;;;;;1804934;78;26348;-34
2022/01/18 06:38:22;;;;;;;0.55;0.42;;;;;;;;;;1807681;78;26300;-35
2022/01/18 06:40:49;;;;;;;1.02;0.40;;;;;;;;;;1796612;79;26233;-36
2022/01/18 06:43:17;;;;;;;0.47;0.40;;;;;;;;;;1800026;79;26902;-34
2022/01/18 06:45:44;;;;;;;0.82;0.33;;;;;;;;;;1800570;79;26280;-35
2022/01/18 06:48:12;;;;;;;0.65;0.50;;;;;;;;;;1794333;78;26805;-35
2022/01/18 06:50:39;;;;;;;0.75;0.42;;;;;;;;;;1791943;79;26310;-36
2022/01/18 06:53:07;;;;;;;0.40;0.40;;;;;;;;;;1792531;79;26247;-35
2022/01/18 06:55:34;;;;;;;4.22;0.50;;;;;;;;;;1789624;79;26366;-35
2022/01/18 06:58:01;;;;;;;0.50;0.37;;;;;;;;;;1789724;78;26230;-35
2022/01/18 07:00:29;;;;;;;1.55;0.50;;;;;;;;;;1787859;79;26316;-34
2022/01/18 07:02:56;;;;;;;1.50;0.25;;;;;;;;;;1792598;79;26261;-34
2022/01/18 07:05:23;;;;;;;0.47;0.40;;;;;;;;;;1793666;79;26344;-34
2022/01/18 07:07:50;;;;;;;1.02;0.60;;;;;;;;;;1789307;79;26842;-37
2022/01/18 07:10:18;;;;;;;0.60;0.60;;;;;;;;;;1795265;78;26816;-33
2022/01/18 07:12:45;;;;;;;8.83;0.72;;;;;;;;;;1790243;78;27585;-34
2022/01/18 07:15:12;;;;;;;0.60;0.60;;;;;;;;;;1795536;78;26222;-36
2022/01/18 07:17:40;;;;;;;0.65;0.42;;;;;;;;;;1793928;79;26347;-33
2022/01/18 07:20:10;;;;;;;0.50;0.50;;;;;;;;;;1789687;79;26233;-35
2022/01/18 07:22:37;;;;;;;0.50;0.50;;;;;;;;;;1797177;78;26297;-35
2022/01/18 07:25:10;;;;;;;0.62;0.50;;;;;;;;;;1796872;78;26218;-35
2022/01/18 07:27:34;;;;;;;0.35;0.35;;;;;;;;;;1792382;79;26380;-34
2022/01/18 07:30:01;;;;;;;0.40;0.40;;;;;;;;;;1785922;78;26250;-34
2022/01/18 07:32:28;;;;;;;0.60;0.60;;;;;;;;;;1796456;78;26314;-35
2022/01/18 07:34:57;;;;;;;0.40;0.40;;;;;;;;;;1789249;78;26332;-35
2022/01/18 07:37:24;;;;;;;0.57;0.47;;;;;;;;;;1799341;78;26196;-34
2022/01/18 07:39:53;;;;;;;0.80;0.55;;;;;;;;;;1790049;78;26244;-35
2022/01/18 07:42:23;;;;;;;0.72;0.50;;;;;;;;;;1793161;78;26311;-36
2022/01/18 07:44:50;;;;;;;0.60;0.60;;;;;;;;;;1793733;79;26259;-34
2022/01/18 07:47:17;;;;;;;1.62;0.60;;;;;;;;;;1783108;78;27395;-35
2022/01/18 07:49:46;;;;;;;1.40;0.50;;;;;;;;;;1765874;80;26816;-35
2022/01/18 07:52:13;;;;;;;0.60;0.60;;;;;;;;;;1771738;79;26262;-36
2022/01/18 07:54:41;;;;;;;1.10;0.70;;;;;;;;;;1768245;80;26400;-34
2022/01/18 07:57:08;;;;;;;0.45;0.45;;;;;;;;;;1767341;79;26383;-37
2022/01/18 07:59:36;;;;;;;0.53;0.50;;;;;;;;;;1769049;79;26290;-32
2022/01/18 08:02:03;;;;;;;0.50;0.50;;;;;;;;;;1768133;80;26330;-33
2022/01/18 08:04:31;;;;;;;0.82;0.53;;;;;;;;;;1766890;79;26227;-34
2022/01/18 08:06:58;;;;;;;1.98;0.60;;;;;;;;;;1775065;79;26286;-33
2022/01/18 08:09:25;;;;;;;0.57;0.57;;;;;;;;;;1768392;79;26841;-33
2022/01/18 08:11:53;;;;;;;0.60;0.60;;;;;;;;;;1768478;80;26408;-33
2022/01/18 08:14:20;;;;;;;0.42;0.40;;;;;;;;;;1763485;79;26361;-35
2022/01/18 08:17:00;;;;;;;1.20;0.50;;;;;;;;;;1771482;79;26313;-34
2022/01/18 08:19:18;;;;;;;0.82;0.60;;;;;;;;;;1765299;80;26283;-34
2022/01/18 08:21:46;;;;;;;0.60;0.60;;;;;;;;;;1778020;79;26365;-34
2022/01/18 08:24:13;;;;;;;0.60;0.60;;;;;;;;;;1764433;79;26376;-37
2022/01/18 08:26:41;;;;;;;0.60;0.60;;;;;;;;;;1752511;80;26314;-34
2022/01/18 08:29:08;;;;;;;0.78;0.60;;;;;;;;;;1779628;79;26295;-36
2022/01/18 08:31:35;;;;;;;0.60;0.60;;;;;;;;;;1772304;79;26258;-35
2022/01/18 08:34:03;;;;;;;0.82;0.40;;;;;;;;;;1777013;79;26294;-36
2022/01/18 08:36:30;;;;;;;0.33;0.33;;;;;;;;;;1785557;79;26269;-35
2022/01/18 08:38:57;;;;;;;0.62;0.45;;;;;;;;;;1780860;79;26310;-35
2022/01/18 08:41:24;;;;;;;0.60;0.60;;;;;;;;;;1770761;79;26745;-37
2022/01/18 08:43:52;;;;;;;0.50;0.50;;;;;;;;;;1787184;79;26302;-35
2022/01/18 08:46:19;;;;;;;0.53;0.53;;;;;;;;;;1776413;79;26333;-36
2022/01/18 08:48:46;;;;;;;0.50;0.40;;;;;;;;;;1768163;79;26428;-37
2022/01/18 08:51:15;;;;;;;0.50;0.50;;;;;;;;;;1781583;79;26516;-35
2022/01/18 08:53:48;;;;;;;0.53;0.53;;;;;;;;;;1776547;79;26302;-35
2022/01/18 08:56:12;;;;;;;0.50;0.50;;;;;;;;;;1777572;79;26278;-34
2022/01/18 08:58:39;;;;;;;0.57;0.57;;;;;;;;;;1781155;79;26340;-35
2022/01/18 09:01:06;;;;;;;0.42;0.42;;;;;;;;;;1778179;80;26255;-36
2022/01/18 09:03:33;;;;;;;0.33;0.33;;;;;;;;;;1765705;79;26279;-35
2022/01/18 09:06:03;;;;;;;0.60;0.60;;;;;;;;;;1763240;79;27373;-34
2022/01/18 09:08:30;;;;;;;0.72;0.68;;;;;;;;;;1774380;79;26240;-34
2022/01/18 09:10:57;;;;;;;0.30;0.30;;;;;;;;;;1779890;79;26385;-34
2022/01/18 09:13:25;;;;;;;0.60;0.60;;;;;;;;;;1769564;79;26795;-34
2022/01/18 09:15:52;;;;;;;0.60;0.60;;;;;;;;;;1780964;80;26759;-35
2022/01/18 09:18:20;;;;;;;0.45;0.45;;;;;;;;;;1772593;79;26337;-34
2022/01/18 09:20:47;;;;;;;0.65;0.60;;;;;;;;;;1773002;79;26334;-34
2022/01/18 09:23:15;;;;;;;0.60;0.60;;;;;;;;;;1780760;79;26322;-37
2022/01/18 09:25:42;;;;;;;0.60;0.60;;;;;;;;;;1778014;79;26323;-37
2022/01/18 09:28:10;;;;;;;0.50;0.50;;;;;;;;;;1778969;79;26263;-35
2022/01/18 09:30:39;;;;;;;0.40;0.40;;;;;;;;;;1761284;79;26274;-34
2022/01/18 09:33:07;;;;;;;0.60;0.60;;;;;;;;;;1779856;79;26823;-34
2022/01/18 09:35:35;;;;;;;0.50;0.50;;;;;;;;;;1780972;79;26259;-37
2022/01/18 09:38:03;;;;;;;0.60;0.60;;;;;;;;;;1777089;79;26403;-36
2022/01/18 09:40:33;;;;;;;0.57;0.57;;;;;;;;;;1763494;80;26227;-34
2022/01/18 09:43:07;;;;;;;0.50;0.50;;;;;;;;;;1779358;79;26326;-34
2022/01/18 09:45:29;;;;;;;0.60;0.60;;;;;;;;;;1779779;80;26311;-35
2022/01/18 09:47:59;;;;;;;0.37;0.37;;;;;;;;;;1764396;80;26345;-35
2022/01/18 09:50:29;;;;;;;0.40;0.40;;;;;;;;;;1768463;80;26404;-34
2022/01/18 09:52:58;;;;;;;0.50;0.50;;;;;;;;;;1788827;79;26728;-34
2022/01/18 09:55:26;;;;;;;0.40;0.40;;;;;;;;;;1778323;79;26338;-33
2022/01/18 09:57:54;;;;;;;0.60;0.60;;;;;;;;;;1782405;80;26756;-36
2022/01/18 10:00:22;;;;;;;0.50;0.50;;;;;;;;;;1772749;79;26301;-34
2022/01/18 10:02:49;;;;;;;0.40;0.40;;;;;;;;;;1766643;79;27344;-34
2022/01/18 10:05:18;;;;;;;0.53;0.53;;;;;;;;;;1774162;80;26268;-34
2022/01/18 10:07:45;;;;;;;0.35;0.35;;;;;;;;;;1782255;79;26279;-36
2022/01/18 10:10:13;;;;;;;0.40;0.40;;;;;;;;;;1780390;79;26326;-36
2022/01/18 10:12:40;;;;;;;0.40;0.40;;;;;;;;;;1782613;79;26286;-36
2022/01/18 10:15:07;;;;;;;0.35;0.35;;;;;;;;;;1783656;80;26798;-34
2022/01/18 10:17:36;;;;;;;0.47;0.47;;;;;;;;;;1783327;79;26295;-34
2022/01/18 10:20:08;;;;;;;0.40;0.40;;;;;;;;;;1784033;79;26294;-36
2022/01/18 10:22:44;;;;;;;0.40;0.40;;;;;;;;;;1782942;80;26302;-35
2022/01/18 10:25:13;;;;;;;0.30;0.30;;;;;;;;;;1782222;79;26310;-34
2022/01/18 10:27:41;;;;;;;0.33;0.33;;;;;;;;;;1765897;79;26330;-36
2022/01/18 10:30:15;;;;;;;0.30;0.30;;;;;;;;;;1776411;79;26735;-34
2022/01/18 10:32:41;;;;;;;0.40;0.40;;;;;;;;;;1783060;79;26731;-34
2022/01/18 10:35:10;;;;;;;0.28;0.28;;;;;;;;;;1782141;79;26286;-33
2022/01/18 10:37:45;;;;;;;0.28;0.28;;;;;;;;;;1782125;79;26368;-36
2022/01/18 10:40:16;;;;;;;0.30;0.30;;;;;;;;;;1774435;80;26270;-35
2022/01/18 10:42:50;;;;;;;0.23;0.23;;;;;;;;;;1779966;79;26299;-35
2022/01/18 10:45:30;;;;;;;0.30;0.30;;;;;;;;;;1783041;79;26782;-34
2022/01/18 10:48:10;;;;;;;0.30;0.30;;;;;;;;;;1756668;79;26368;-35
2022/01/18 10:50:35;;;;;;;0.30;0.30;;;;;;;;;;1779886;79;26330;-34
2022/01/18 10:53:18;;;;;;;0.55;0.30;;;;;;;;;;1770140;79;27274;-34
2022/01/18 10:55:47;;;;;;;0.25;0.25;;;;;;;;;;1767326;79;26307;-34
2022/01/18 10:58:16;;;;;;;0.23;0.23;;;;;;;;;;1779611;79;26401;-34
2022/01/18 11:00:44;;;;;;;0.30;0.30;;;;;;;;;;1776768;80;26357;-35
2022/01/18 11:03:11;;;;;;;0.20;0.20;;;;;;;;;;1775140;79;26360;-34
2022/01/18 11:05:41;;;;;;;0.23;0.23;;;;;;;;;;1766339;79;26373;-35
2022/01/18 11:08:08;;;;;;;0.30;0.30;;;;;;;;;;1779447;80;27136;-34
2022/01/18 11:10:43;;;;;;;0.30;0.30;;;;;;;;;;1771934;79;26314;-35
2022/01/18 11:13:12;;;;;;;0.25;0.25;;;;;;;;;;1780391;79;26322;-33
2022/01/18 11:15:45;;;;;;;0.53;0.30;;;;;;;;;;1762751;79;26471;-33
2022/01/18 11:18:17;;;;;;;0.20;0.20;;;;;;;;;;1777433;80;26303;-34
2022/01/18 11:20:44;;;;;;;0.30;0.30;;;;;;;;;;1771534;79;26588;-36
2022/01/18 11:23:12;;;;;;;0.20;0.20;;;;;;;;;;1778718;80;26267;-34
2022/01/18 11:25:40;;;;;;;0.20;0.20;;;;;;;;;;1777316;80;26829;-34
2022/01/18 11:28:09;;;;;;;0.20;0.15;;;;;;;;;;1779891;79;26323;-34
2022/01/18 11:30:38;;;;;;;0.20;0.20;;;;;;;;;;1772703;79;26279;-34
2022/01/18 11:33:07;;;;;;;0.10;0.10;;;;;;;;;;1764925;79;26356;-34
2022/01/18 11:35:36;;;;;;;0.20;0.20;;;;;;;;;;1781145;80;26298;-34
2022/01/18 11:38:05;;;;;;;0.30;0.30;;;;;;;;;;1775793;79;26301;-34
2022/01/18 11:40:48;;;;;;;0.30;0.30;;;;;;;;;;1781038;79;26286;-37
2022/01/18 11:43:17;;;;;;;0.30;0.30;;;;;;;;;;1778171;79;26288;-35
2022/01/18 11:45:45;;;;;;;0.23;0.23;;;;;;;;;;1770493;79;26380;-36
2022/01/18 11:48:17;;;;;;;0.30;0.30;;;;;;;;;;1775137;79;26865;-38
2022/01/18 11:50:46;;;;;;;0.55;0.40;;;;;;;;;;1783991;79;26268;-37
2022/01/18 11:54:06;;;;;;;0.30;0.30;;;;;;;;;;1773952;80;26290;-37
2022/01/18 11:55:45;;;;;;;0.28;0.28;;;;;;;;;;1743433;80;26694;-35
2022/01/18 11:58:13;;;;;;;0.30;0.30;;;;;;;;;;1766960;79;26298;-34
2022/01/18 12:00:49;;;;;;;0.20;0.20;;;;;;;;;;1779370;79;26349;-36
2022/01/18 12:03:18;;;;;;;0.20;0.20;;;;;;;;;;1776598;79;26837;-36
2022/01/18 12:05:45;;;;;;;0.30;0.30;;;;;;;;;;1779674;79;26283;-38
2022/01/18 12:08:14;;;;;;;0.20;0.20;;;;;;;;;;1784211;79;26293;-35
2022/01/18 12:10:43;;;;;;;0.30;0.30;;;;;;;;;;1780262;79;26404;-34
2022/01/18 12:13:13;;;;;;;1.65;0.30;;;;;;;;;;1775371;79;26330;-34
2022/01/18 12:15:47;;;;;;;0.20;0.20;;;;;;;;;;1782333;79;26297;-38
2022/01/18 12:18:16;;;;;;;0.80;0.20;;;;;;;;;;1782514;79;26668;-34
2022/01/18 12:20:45;;;;;;;0.30;0.30;;;;;;;;;;1784092;80;25928;-37
2022/01/18 12:23:30;;;;;;;0.30;0.30;;;;;;;;;;1773853;79;26923;-37
2022/01/18 12:26:15;;;;;;;0.30;0.30;;;;;;;;;;1774703;79;26278;-31
2022/01/18 12:29:34;;;;;;;0.20;0.20;;;;;;;;;;1775377;80;26373;-39
2022/01/18 12:31:23;;;;;;;0.40;0.40;;;;;;;;;;1750820;80;26333;-34
2022/01/18 12:33:40;;;;;;;0.57;0.33;;;;;;;;;;1766782;79;26309;-37
2022/01/18 12:36:14;;;;;;;0.33;0.20;;;;;;;;;;1775575;79;26448;-37
2022/01/18 12:38:42;;;;;;;0.20;0.20;;;;;;;;;;1773239;80;26343;-41
2022/01/18 12:41:09;;;;;;;0.30;0.30;;;;;;;;;;1783197;79;26742;-36
2022/01/18 12:46:22;;;;;;;0.15;0.15;;;;;;;;;;1778960;79;26408;-36
2022/01/18 12:48:50;;;;;;;0.33;0.28;;;;;;;;;;1782924;80;26286;-35
2022/01/18 12:51:18;;;;;;;0.30;0.30;;;;;;;;;;1778656;79;26298;-35
2022/01/18 12:53:47;;;;;;;0.20;0.20;;;;;;;;;;1780298;79;26310;-36
2022/01/18 12:56:15;;;;;;;0.23;0.23;;;;;;;;;;1781326;79;26228;-37
2022/01/18 12:58:45;;;;;;;0.10;0.10;;;;;;;;;;1776837;79;26828;-36
2022/01/18 13:01:14;;;;;;;0.95;0.30;;;;;;;;;;1780711;79;26295;-35
2022/01/18 13:03:42;;;;;;;0.30;0.30;;;;;;;;;;1780924;79;27039;-36
2022/01/18 13:06:14;;;;;;;0.40;0.40;;;;;;;;;;1772788;79;26324;-34
2022/01/18 13:08:46;;;;;;;0.30;0.30;;;;;;;;;;1776909;79;26298;-35
2022/01/18 13:11:18;;;;;;;0.53;0.30;;;;;;;;;;1780099;79;26769;-35
2022/01/18 13:13:53;;;;;;;0.20;0.20;;;;;;;;;;1774175;79;26311;-38
2022/01/18 13:27:20;;;;;;;0.20;0.20;;;;;;;;;;1775248;80;26573;-37
2022/01/18 13:29:44;;;;;;;0.30;0.30;;;;;;;;;;1766467;79;26761;-37
2022/01/18 13:32:18;;;;;;;0.40;0.40;;;;;;;;;;1776343;79;26971;-38
2022/01/18 13:34:46;;;;;;;0.30;0.25;;;;;;;;;;1776887;80;26314;-38
2022/01/18 13:37:15;;;;;;;0.30;0.30;;;;;;;;;;1774430;79;26612;-39
2022/01/18 13:39:53;;;;;;;0.20;0.20;;;;;;;;;;1778327;79;26399;-35
2022/01/18 13:42:28;;;;;;;0.28;0.28;;;;;;;;;;1771463;79;26278;-35
2022/01/18 13:45:16;;;;;;;0.20;0.20;;;;;;;;;;1780363;79;26299;-36
2022/01/18 13:47:44;;;;;;;1.25;0.20;;;;;;;;;;1776637;79;26942;-36
2022/01/18 13:50:31;;;;;;;0.20;0.20;;;;;;;;;;1777124;79;26346;-39
2022/01/18 13:53:00;;;;;;;0.10;0.10;;;;;;;;;;1780322;79;26365;-36
2022/01/18 13:55:28;;;;;;;0.30;0.30;;;;;;;;;;1773218;80;26330;-34
2022/01/18 13:57:56;;;;;;;0.30;0.30;;;;;;;;;;1777743;79;26357;-37
2022/01/18 14:00:25;;;;;;;0.40;0.40;;;;;;;;;;1776507;79;26357;-36
2022/01/18 14:02:53;;;;;;;0.47;0.30;;;;;;;;;;1774441;79;26278;-34
2022/01/18 14:05:22;;;;;;;1.30;0.40;;;;;;;;;;1778034;79;26329;-35
2022/01/18 14:07:50;;;;;;;0.20;0.20;;;;;;;;;;1778350;79;26984;-35
2022/01/18 14:10:19;;;;;;;0.30;0.30;;;;;;;;;;1774036;79;26809;-35
2022/01/18 14:12:46;;;;;;;0.20;0.20;;;;;;;;;;1782757;79;26840;-35
2022/01/18 14:15:15;;;;;;;0.68;0.35;;;;;;;;;;1780423;79;26750;-42
2022/01/18 14:17:42;;;;;;;0.30;0.30;;;;;;;;;;1782150;79;26286;-36
2022/01/18 14:20:15;;;;;;;0.20;0.20;;;;;;;;;;1779502;80;26353;-33
2022/01/18 14:22:40;;;;;;;1.77;0.60;;;;;;;;;;1765083;80;26807;-34
2022/01/18 14:25:08;;;;;;;0.72;0.30;;;;;;;;;;1780714;79;26306;-35
2022/01/18 14:27:42;;;;;;;0.40;0.40;;;;;;;;;;1774862;79;26231;-32
2022/01/18 14:30:10;;;;;;;1.42;0.30;;;;;;;;;;1780569;79;26354;-36
2022/01/18 14:32:42;;;;;;;0.47;0.30;;;;;;;;;;1779068;80;26763;-29
2022/01/18 14:35:11;;;;;;;0.30;0.30;;;;;;;;;;1776680;80;26318;-35
2022/01/18 14:37:39;;;;;;;2.08;0.30;;;;;;;;;;1774335;79;26746;-36
2022/01/18 14:40:08;;;;;;;0.20;0.20;;;;;;;;;;1776053;80;26825;-33
2022/01/18 14:42:49;;;;;;;0.80;0.40;;;;;;;;;;1760860;80;28334;-35
2022/01/18 14:47:44;;;;;;;0.30;0.30;;;;;;;;;;1778670;80;26759;-40
2022/01/18 14:50:16;;;;;;;0.23;0.23;;;;;;;;;;1770735;79;26326;-35
2022/01/18 14:52:45;;;;;;;0.30;0.30;;;;;;;;;;1777023;80;26299;-34
2022/01/18 14:55:13;;;;;;;0.23;0.23;;;;;;;;;;1772287;80;26339;-33
2022/01/18 14:57:40;;;;;;;0.57;0.40;;;;;;;;;;1785404;79;26663;-32
2022/01/18 15:00:09;;;;;;;0.30;0.30;;;;;;;;;;1781107;80;26369;-37
2022/01/18 15:02:37;;;;;;;0.30;0.30;;;;;;;;;;1771608;79;26286;-38
2022/01/18 15:05:06;;;;;;;0.20;0.20;;;;;;;;;;1779416;80;26631;-33
2022/01/18 15:07:35;;;;;;;0.20;0.20;;;;;;;;;;1768184;80;26289;-32
2022/01/18 15:10:06;;;;;;;0.35;0.30;;;;;;;;;;1779774;79;26322;-37
2022/01/18 15:12:37;;;;;;;0.30;0.30;;;;;;;;;;1765405;80;26781;-37
2022/01/18 15:15:05;;;;;;;0.28;0.28;;;;;;;;;;1783639;80;26290;-32
2022/01/18 15:17:32;;;;;;;0.35;0.30;;;;;;;;;;1774221;80;26324;-33
2022/01/18 15:19:59;;;;;;;0.25;0.25;;;;;;;;;;1775022;80;26369;-40
2022/01/18 15:22:27;;;;;;;0.28;0.28;;;;;;;;;;1781631;79;26401;-39
2022/01/18 15:24:55;;;;;;;0.37;0.37;;;;;;;;;;1778641;79;26737;-38
2022/01/18 15:27:23;;;;;;;0.25;0.25;;;;;;;;;;1774053;80;26310;-38
2022/01/18 15:29:50;;;;;;;1.20;0.37;;;;;;;;;;1770047;80;26357;-37
2022/01/18 15:32:18;;;;;;;0.30;0.30;;;;;;;;;;1776667;80;26309;-34
2022/01/18 15:34:46;;;;;;;0.23;0.23;;;;;;;;;;1777543;80;26306;-35
2022/01/18 15:37:18;;;;;;;0.30;0.30;;;;;;;;;;1771865;80;26370;-38
2022/01/18 15:39:50;;;;;;;0.10;0.10;;;;;;;;;;1769813;80;26345;-36
2022/01/18 15:42:18;;;;;;;0.50;0.50;;;;;;;;;;1783651;79;26298;-34
2022/01/18 15:44:46;;;;;;;0.30;0.30;;;;;;;;;;1773756;80;26688;-33
2022/01/18 15:47:14;;;;;;;0.33;0.33;;;;;;;;;;1768090;80;26341;-38
2022/01/18 15:49:42;;;;;;;0.20;0.20;;;;;;;;;;1778149;80;26330;-37
2022/01/18 15:52:10;;;;;;;0.20;0.20;;;;;;;;;;1779141;79;26657;-34
2022/01/18 15:54:37;;;;;;;0.30;0.30;;;;;;;;;;1778475;79;26338;-32
2022/01/18 15:57:07;;;;;;;0.33;0.33;;;;;;;;;;1778643;80;26810;-35
2022/01/18 15:59:36;;;;;;;0.42;0.42;;;;;;;;;;1774728;79;26317;-33
2022/01/18 16:02:03;;;;;;;0.30;0.30;;;;;;;;;;1775242;79;26231;-31
2022/01/18 16:04:31;;;;;;;0.30;0.30;;;;;;;;;;1780034;80;26283;-34
2022/01/18 16:06:58;;;;;;;0.40;0.40;;;;;;;;;;1780078;79;26267;-39
2022/01/18 16:09:26;;;;;;;0.33;0.33;;;;;;;;;;1778491;79;26336;-34
2022/01/18 16:11:54;;;;;;;0.85;0.47;;;;;;;;;;1776596;80;26376;-35